Viernes, 27 de Febrero del 2015

portal contactenos mapa del sitio buscar Revisar Correo Corporativo

Reporte METAR Consolidado

|| Reporte TAF Consolidado ||

Informe METAR emitido cada hora.

METAR

ESTACIÓN

AEROPUERTO

HORA UTC

DESCRIPCIÓN

SLGM

Guayaramerín

10-49S|65-20W

23:00

SLGM 262300Z 00000KT 8000 VCSH FEW017 FEW020CB BKN200 27/26 Q1008 A2978 HR90 CB/SH E/SE=

SLRI

Riberalta

11-00S|66-04W

23:00

SLRI 262300Z 00000KT 9999 SCT017 FEW020CB BKN200 28/23 Q1007 A2974 HR72 CB NE/SW=

SLCO

Cobija

11-02S|68-47W

22:00

SLCO 262200Z 00000KT 9999 FEW020 SCT200 31/24 Q1006 A2972 979.0 HR67=

SLJO

San Joaquin

13-03S|64-39W

22:00

SLJO 262200Z 32005KT 8000 VCSH SCT017 FEW023CB BKN200 30/25 Q1007 A2976 HR72 CB/SH NE/E RWY NML=

SLRA

San Ramón

13-15S|64-36W

22:00

SLRA 262200Z 00000KT 8000 VCSH SCT017 FEW023CB BKN200 28/26 Q1007 A2976 HR87 CB/SH NE/S/NW RWY NML=

SLMG

San Magdalena

13-15S|64-03W

23:00

SLMG 262300Z 00000KT 8000 VCSH SCT017 FEW023CB BKN200 27/24 Q1008 A2979 HR83 CB N/SE/W SH N/NE=

SLBU

Baures

13-39S|63-42W

22:00

SLBU 262200Z 35006KT 7000 VCSH SCT017 FEW023CB BKN200 29/25 Q1008 A2977 HR79 CB/SH N/NE/E/NW RWY NML=

SLSA

Santa Ana de Yacuma

13-45S|65-26W

23:00

SLSA 262300Z 00000KT 9999 FEW020 FEW023CB BKN200 30/25 Q1005 A2968 HR76 CB NW=

SLSR

Santa Rosa

14-04S|66-47W

22:00

SLSR 262200Z 00000KT 9999 SCT017 33/25 Q1002 A2961 HR63 RWY HUM OPR=

SLRY

Reyes

14-18S|67-21W

22:00

SLRY 262200Z 00000KT 9999 FEW020 32/24 Q1006 A2973 HR65 RWY WET OPR 1 000M C206=

SLRQ

Rurrenabaque

14-25S|67-29W

22:00

SLRQ 262200Z 36006KT 9999 FEW020 SCT200 31/26 Q1005 A2968 HR74=

SLAP

Apolo

14-44S|68-24W

-

Mensaje no Recibido

SLTR

Trinidad

14-49S|64-54W

23:00

SLTR 262300Z 00000KT 9999 FEW017 FEW020CB BKN200 28/26 Q1006 A2972 988.0 HR87 CB DIST N NOSIG=

SLSB

San Borja

14-51S|66-44W

23:00

SLSB 262300Z 00000KT 9999 NSC 30/25 Q1005 A2970 HR74 RWY NML=

SLSM

San Ignacio de Moxos

14-57S|65-38W

22:00

SLSM 262200Z 36004KT 9999 FEW017 BKN200 32/25 Q1003 A2965 HR67 RWY NML=

SLAS

Ascención de Guarayos

15-55S|63-09W

23:00

SLAS 262300Z 09006KT 9999 SCT015 OVC200 23/22 Q1008 A2977 HR96 RETS RWY WET OPR=

SLCP

Concepción

16-08S|62-01W

22:00

SLCP 262200Z 00000KT 9999 FEW020 BKN200 28/23 Q1011 A2985 HR72 RWY NML=

SLLP

Internaciónal El Alto

16-08S|68-10W

05:00

SLLP 270500Z VRB02KT 4000E VCFG FEW003 SCT200 05/04 Q1036 A3061 627.2 VCFG NE/E/SE AC HR93 NOSIG=

SLJV

San Javier

16-16S|62-28W

22:00

SLJV 262200Z 36004KT 9999 TS SCT020 FEW030CB BKN200 26/23 Q1008 A2977 HR85 CB/TS SW/W RWY NML=

SLTI

San Matías

16-20S|58-24W

22:00

SLTI 262200Z 00000KT 9999 BKN017 OVC200 25/22 Q1015 A2997 HR84 RWY NML=

SLSI

San Ignacio de Velasco

16-23S|60-57W

23:00

SLSI 262300Z 00000KT 9999 SCT020 FEW030CB OVC200 26/23 Q1009 A2980 HR83 CB S RWY NML=

SLCB

Cochabamba

17-25S|66-10W

05:00

SLCB 270500Z 12004KT 9999 FEW027 FEW030CB BKN070 19/11 Q1022 A3020 749.7 HR56 CI CB/LT DIST N/NE/S/SW NOSIG=

SLCN

Charaña

17-35S|69-25W

-

Mensaje no Recibido

SLVR

Internaciónal Viru Viru

17-38S|63-08W

05:00

SLVR 270500Z 34005KT 9999 SCT015 FEW030CB BKN200 23/23 Q1011 A2986 HR96 CB/W/NW NOSIG=

SLET

El Trompillo

17-48S|63-10W

23:00

SLET 262300Z 33010KT 9999 FEW017 SCT070 BKN200 28/21 Q1007 A2974 HR66 NOSIG=

SLJE

San José de Chiquitos

17-49S|60-44W

22:00

SLJE 262200Z 00000KT 9999 BKN017 28/24 Q1011 A2985 HR78 RWY WET OPR C206=

SLOR

Oruro

17-57S|67-04W

21:00

SLOR 262100Z 34005KT 9999 SCT017 FEW020CB 17/06 Q1031 A3046 653.4 CB/SH/SE/S/SW CI HR48=

SLRB

Roboré

18-19S|59-45W

23:00

SLRB 262300Z 36010KT 9999 FEW020 FEW025CB 27/24 Q1010 A2983 HR86 CB NE/E/SE RWY NML=

SLVG

Valle Grande

18-28S|64-05W

21:00

SLVG 262100Z 03007KT 9999 FEW030 24/15 Q1020 A3012 HR56 RWY NML =

SLPS

Puerto Suárez

18-58S|57-49W

23:00

SLPS 262300Z 00000KT 9999 SCT020 BKN070 25/23 Q1008 A2977 HR88 RETS=

SLSU

Sucre

19-00S|65-17W

23:00

SLSU 262300Z 03007KT 9999 FEW020 18/10 Q1024 A3025 HR60=

SLPO

Potosí

19-32S|65-43W

21:00

SLPO 262100Z 06012KT 9999 FEW020 15/06 Q1033 A3050 HR55=

SLAG

Monteagudo

19-49S|63-58W

21:00

SLAG 262100Z 09005KT 9999 FEW036 30/20 Q1011 A2986 HR54 RWY CLSD=

SLCA

Camiri

20-00S|63-31W

23:00

SLCA 262300Z 00000KT 9999 BKN036 31/20 Q1009 A2980 HR52 RWY NML =

SLUY

Uyuni

20-27S|62-52W

-

SLUY 270000Z 27025KT 9999 SCT010 SCT015CB BKN070 BKN200 13/06 Q1030 A3044 656.0 CB/N/NE/E/SE/S HR60=

SLVM

Villamontes

21-15S|63-24W

21:00

SLVM 262100Z 00000KT 9999 FEW025 33/22 Q1004 A2965 HR53=

SLTJ

Tarija

21-33S|64-42W

02:00

SLTJ 270200Z 13007KT 9999 BKN030 FEW033CB 21/16 Q1019 A3009 HR70 CB LT N/S AC=

SLYA

Yacuiba

21-57S|63-39W

23:00

SLYA 262300Z 18005KT 9999 FEW023 28/24 Q1008 A2977 HR82=

SLBJ

Bermejo

22-46S|64-18W

21:00

SLBJ 262100Z 18010KT 9999 SCT013 BKN070 29/24 Q1005 A2968 HR75=